Time;durP1;ratioP1;P1;durP2;ratioP2;P2;SDS_P1;SDS_P2;PMS_P1;PMS_P2;Temp;Humidity;BMP_temperature;BMP_pressure;BME280_temperature;BME280_humidity;BME280_pressure;Samples;Min_cycle;Max_cycle;Signal;HPM_P1;HPM_P2
2021/08/15 00:00:02;;;;;;;6.82;3.50;;;;;;;15.91;90.19;101645.78;10462392;28;20049;-59
2021/08/15 00:05:07;;;;;;;8.23;3.60;;;;;;;15.91;89.26;101629.94;10462719;28;20397;-58
2021/08/15 00:10:10;;;;;;;7.95;3.67;;;;;;;15.88;89.62;101623.03;10462603;28;20049;-60
2021/08/15 00:15:13;;;;;;;8.25;3.72;;;;;;;15.87;89.58;101625.78;10461211;28;20405;-60
2021/08/15 00:20:16;;;;;;;11.60;4.15;;;;;;;15.82;90.28;101617.31;10462080;28;20053;-59
2021/08/15 00:25:19;;;;;;;6.72;3.58;;;;;;;15.94;89.83;101622.63;10461910;28;20049;-59
2021/08/15 00:30:21;;;;;;;8.43;4.40;;;;;;;16.01;90.31;101619.59;10461585;28;20045;-59
2021/08/15 00:35:23;;;;;;;6.25;2.90;;;;;;;15.76;89.04;101626.50;10460733;28;20045;-60
2021/08/15 00:40:26;;;;;;;7.05;3.47;;;;;;;15.95;89.32;101615.56;10461814;28;20378;-59
2021/08/15 00:45:29;;;;;;;5.63;3.00;;;;;;;15.87;89.97;101612.56;10461434;28;20413;-60
2021/08/15 00:50:31;;;;;;;6.80;3.40;;;;;;;15.82;90.07;101609.41;10460916;28;20443;-59
2021/08/15 00:55:34;;;;;;;6.53;3.00;;;;;;;15.96;89.54;101604.88;10460869;28;20056;-59
2021/08/15 01:00:37;;;;;;;3.47;2.97;;;;;;;16.04;88.42;101600.88;10460561;28;20167;-59
2021/08/15 01:05:39;;;;;;;5.43;3.15;;;;;;;15.95;90.62;101592.66;10460424;28;20591;-59
2021/08/15 01:10:41;;;;;;;6.70;3.40;;;;;;;15.95;90.94;101597.94;10459300;28;20060;-59
2021/08/15 01:15:44;;;;;;;5.72;3.58;;;;;;;16.11;89.21;101586.31;10460346;28;20064;-60
2021/08/15 01:20:46;;;;;;;4.72;2.70;;;;;;;15.93;89.55;101583.97;10458566;28;20045;-59
2021/08/15 01:25:49;;;;;;;6.10;3.15;;;;;;;16.07;89.88;101579.53;10459762;28;20052;-59
2021/08/15 01:30:51;;;;;;;4.80;2.95;;;;;;;15.93;89.64;101578.69;10459392;28;20052;-58
2021/08/15 01:35:54;;;;;;;5.32;2.90;;;;;;;16.13;89.77;101576.50;10459559;28;20056;-59
2021/08/15 01:40:57;;;;;;;4.68;3.13;;;;;;;16.05;90.51;101569.06;10458817;28;20049;-59
2021/08/15 01:45:59;;;;;;;6.32;2.67;;;;;;;15.99;89.85;101566.88;10458656;28;20053;-59
2021/08/15 01:51:02;;;;;;;7.22;3.33;;;;;;;15.84;90.93;101560.00;10458336;28;20415;-59
2021/08/15 01:56:05;;;;;;;6.70;3.33;;;;;;;15.86;91.35;101555.47;10458912;28;20045;-59
2021/08/15 02:01:07;;;;;;;4.45;2.70;;;;;;;16.10;90.08;101539.72;10458800;28;20073;-58
2021/08/15 02:06:10;;;;;;;7.65;3.42;;;;;;;15.92;91.15;101524.19;10458763;28;20041;-59
2021/08/15 02:11:12;;;;;;;9.82;3.38;;;;;;;15.72;92.71;101528.16;10457784;28;20045;-59
2021/08/15 02:16:15;;;;;;;4.07;2.88;;;;;;;15.81;92.33;101524.06;10458276;28;20052;-59
2021/08/15 02:21:17;;;;;;;8.45;3.97;;;;;;;15.73;92.98;101531.63;10457948;28;20049;-59
2021/08/15 02:26:19;;;;;;;3.60;3.08;;;;;;;15.85;91.96;101514.97;10457383;28;20045;-60
2021/08/15 02:31:22;;;;;;;4.10;3.17;;;;;;;15.55;93.18;101510.81;10457503;28;20496;-60
2021/08/15 02:36:24;;;;;;;5.55;3.58;;;;;;;15.33;94.71;101511.41;10456891;28;20481;-59
2021/08/15 02:41:26;;;;;;;9.23;4.57;;;;;;;15.37;94.41;101510.25;10456640;28;20076;-59
2021/08/15 02:46:29;;;;;;;9.75;3.70;;;;;;;15.52;93.48;101499.63;10456854;28;20045;-59
2021/08/15 02:51:32;;;;;;;6.53;3.35;;;;;;;15.63;93.11;101491.81;10456969;28;20056;-59
2021/08/15 02:56:34;;;;;;;7.00;3.58;;;;;;;15.58;93.47;101496.56;10456448;28;20041;-59
2021/08/15 03:01:36;;;;;;;8.65;4.00;;;;;;;15.39;94.72;101487.22;10457068;28;20049;-59
2021/08/15 03:06:41;;;;;;;6.30;4.35;;;;;;;15.27;95.95;101474.88;10456302;28;20127;-59
2021/08/15 03:11:44;;;;;;;9.85;5.13;;;;;;;15.50;94.22;101467.19;10456604;28;20052;-60
2021/08/15 03:16:46;;;;;;;12.57;5.60;;;;;;;15.49;94.83;101463.72;10456103;28;20068;-59
2021/08/15 03:21:48;;;;;;;7.47;5.82;;;;;;;15.48;94.95;101454.09;10456446;28;20045;-59
2021/08/15 03:26:51;;;;;;;10.60;6.50;;;;;;;15.37;94.60;101457.47;10456307;28;20045;-60
2021/08/15 03:31:53;;;;;;;15.20;8.02;;;;;;;15.26;95.93;101464.41;10458199;28;20049;-59
2021/08/15 03:36:56;;;;;;;13.38;8.23;;;;;;;15.19;96.25;101461.34;10463791;28;20057;-60
2021/08/15 03:41:59;;;;;;;14.20;8.02;;;;;;;15.42;94.86;101458.00;10464224;28;20049;-59
2021/08/15 03:47:02;;;;;;;11.93;8.50;;;;;;;15.28;96.19;101467.78;10463426;28;20045;-58
2021/08/15 03:52:04;;;;;;;14.95;8.98;;;;;;;15.08;97.37;101477.88;10463648;28;20045;-59
2021/08/15 03:57:06;;;;;;;14.30;8.45;;;;;;;15.24;97.07;101470.63;10463283;28;20056;-59
2021/08/15 04:02:09;;;;;;;15.65;9.98;;;;;;;15.25;95.41;101463.59;10462269;28;20060;-60
2021/08/15 04:07:11;;;;;;;12.32;8.30;;;;;;;15.42;96.68;101468.56;10462680;28;20127;-59
2021/08/15 04:12:13;;;;;;;17.73;8.70;;;;;;;15.40;95.29;101462.56;10462129;28;20052;-59
2021/08/15 04:17:16;;;;;;;20.08;10.55;;;;;;;16.00;92.84;101465.56;10462357;28;20056;-59
2021/08/15 04:22:18;;;;;;;24.92;13.15;;;;;;;16.15;91.20;101472.44;10462863;28;20045;-59
2021/08/15 04:27:21;;;;;;;22.80;14.05;;;;;;;16.41;89.75;101474.16;10460556;28;20052;-59
2021/08/15 04:32:23;;;;;;;19.27;13.00;;;;;;;16.53;88.15;101473.28;10461912;28;20051;-59
2021/08/15 04:37:26;;;;;;;27.83;17.75;;;;;;;16.28;88.86;101459.16;10461522;28;20509;-59
2021/08/15 04:42:28;;;;;;;22.13;14.48;;;;;;;16.47;88.25;101450.75;10461497;28;20048;-59
2021/08/15 04:47:30;;;;;;;18.13;14.13;;;;;;;16.57;88.17;101448.31;10461640;28;20045;-59
2021/08/15 04:52:33;;;;;;;25.45;16.65;;;;;;;16.61;87.96;101435.72;10461383;28;20052;-60
2021/08/15 04:57:35;;;;;;;31.17;18.05;;;;;;;16.58;87.00;101438.59;10460997;28;20056;-58
2021/08/15 05:02:37;;;;;;;22.60;17.30;;;;;;;16.61;87.59;101433.06;10461075;28;20044;-59
2021/08/15 05:07:40;;;;;;;20.55;14.63;;;;;;;16.99;86.90;101432.09;10460224;28;20109;-59
2021/08/15 05:12:42;;;;;;;29.02;13.82;;;;;;;16.96;86.52;101437.59;10460403;28;20051;-60
2021/08/15 05:17:45;;;;;;;19.48;14.32;;;;;;;16.81;85.88;101421.03;10460049;28;20053;-59
2021/08/15 05:22:47;;;;;;;20.88;13.32;;;;;;;16.95;85.52;101428.00;10460620;28;20045;-58
2021/08/15 05:27:50;;;;;;;21.35;15.00;;;;;;;17.10;86.13;101429.50;10459687;28;20061;-59
2021/08/15 05:32:53;;;;;;;25.45;15.40;;;;;;;17.09;86.30;101422.50;10460104;28;20056;-60
2021/08/15 05:37:55;;;;;;;29.55;16.42;;;;;;;17.32;85.49;101419.94;10459332;28;20052;-59
2021/08/15 05:42:57;;;;;;;20.48;15.23;;;;;;;17.37;86.84;101415.13;10459180;28;20119;-59
2021/08/15 05:48:00;;;;;;;23.98;15.07;;;;;;;17.36;86.53;101410.78;10458724;28;20049;-59
2021/08/15 05:53:02;;;;;;;19.17;13.60;;;;;;;17.42;85.25;101411.16;10458672;28;20539;-59
2021/08/15 05:58:04;;;;;;;21.75;15.00;;;;;;;17.45;86.22;101416.22;10457755;28;20411;-59
2021/08/15 06:03:07;;;;;;;22.48;17.00;;;;;;;17.12;86.93;101422.28;10458246;28;20489;-58
2021/08/15 06:08:09;;;;;;;24.48;15.45;;;;;;;17.41;85.59;101412.09;10458033;28;20064;-59
2021/08/15 06:13:11;;;;;;;24.48;15.32;;;;;;;17.49;85.96;101411.53;10458303;28;20392;-60
2021/08/15 06:18:16;;;;;;;22.52;14.68;;;;;;;17.66;85.13;101414.69;10457640;28;20049;-59
2021/08/15 06:23:19;;;;;;;20.50;13.18;;;;;;;17.89;82.25;101416.41;10457826;28;20103;-59
2021/08/15 06:28:21;;;;;;;26.65;16.65;;;;;;;17.86;84.29;101403.38;10457315;28;20045;-59
2021/08/15 06:33:23;;;;;;;20.77;15.40;;;;;;;17.95;83.17;101400.00;10457321;28;20049;-60
2021/08/15 06:38:26;;;;;;;23.13;17.52;;;;;;;17.85;83.46;101400.84;10457319;28;20052;-59
2021/08/15 06:43:28;;;;;;;23.95;16.20;;;;;;;17.90;84.53;101396.06;10456038;28;20056;-59
2021/08/15 06:48:30;;;;;;;23.27;14.43;;;;;;;17.94;84.66;101394.88;10456533;28;20397;-59
2021/08/15 06:53:35;;;;;;;18.13;11.73;;;;;;;18.44;81.71;101392.63;10457227;28;20489;-58
2021/08/15 06:58:38;;;;;;;22.70;12.35;;;;;;;18.59;81.49;101387.84;10456308;28;20405;-59
2021/08/15 07:03:40;;;;;;;22.13;11.18;;;;;;;18.68;79.17;101380.97;10456945;28;20049;-59
2021/08/15 07:08:43;;;;;;;20.77;11.02;;;;;;;18.87;77.82;101375.81;10462663;28;20041;-59
2021/08/15 07:13:45;;;;;;;16.00;9.88;;;;;;;19.11;78.09;101372.94;10465094;28;20132;-59
2021/08/15 07:18:47;;;;;;;18.73;8.93;;;;;;;19.25;74.36;101368.28;10464874;28;20049;-59
2021/08/15 07:23:50;;;;;;;13.65;8.32;;;;;;;19.90;72.89;101368.84;10465156;28;20041;-60
2021/08/15 07:28:53;;;;;;;13.73;7.95;;;;;;;20.45;71.29;101363.09;10464170;28;20049;-59
2021/08/15 07:33:55;;;;;;;12.63;7.88;;;;;;;20.98;68.86;101369.84;10465116;28;20048;-60
2021/08/15 07:38:57;;;;;;;13.27;8.48;;;;;;;21.49;67.00;101373.94;10464021;28;20067;-59
2021/08/15 07:44:00;;;;;;;11.70;7.55;;;;;;;21.55;66.96;101366.34;10463821;28;20045;-59
2021/08/15 07:49:02;;;;;;;21.08;8.40;;;;;;;21.52;65.70;101356.84;10463266;28;20056;-59
2021/08/15 07:54:05;;;;;;;13.15;6.90;;;;;;;22.31;64.57;101358.13;10463596;28;20052;-59
2021/08/15 07:59:10;;;;;;;13.00;7.35;;;;;;;22.64;62.57;101361.09;10463430;28;20056;-59
2021/08/15 08:04:12;;;;;;;14.93;7.82;;;;;;;22.76;63.15;101346.53;10462931;28;20041;-60
2021/08/15 08:09:17;;;;;;;14.13;6.32;;;;;;;23.65;60.79;101349.09;10462388;28;20444;-59
2021/08/15 08:14:19;;;;;;;11.45;6.38;;;;;;;22.92;62.97;101345.81;10462116;28;20063;-60
2021/08/15 08:19:21;;;;;;;8.73;5.63;;;;;;;22.78;62.05;101343.72;10462211;28;20049;-60
2021/08/15 08:24:24;;;;;;;9.77;6.18;;;;;;;22.54;62.33;101347.00;10462662;28;20045;-60
2021/08/15 08:29:26;;;;;;;14.13;6.25;;;;;;;22.24;63.73;101346.34;10462522;28;20060;-60
2021/08/15 08:34:28;;;;;;;12.15;5.63;;;;;;;22.81;63.36;101349.56;10462167;28;20059;-59
2021/08/15 08:39:31;;;;;;;10.20;6.20;;;;;;;23.46;61.53;101348.31;10460434;28;20056;-60
2021/08/15 08:44:35;;;;;;;9.02;5.32;;;;;;;22.85;62.92;101344.75;10460492;28;20041;-59
2021/08/15 08:49:41;;;;;;;13.02;5.95;;;;;;;23.36;62.23;101344.94;10461595;28;20106;-59
2021/08/15 08:54:44;;;;;;;10.15;6.10;;;;;;;23.30;62.55;101330.41;10460940;28;20052;-59
2021/08/15 08:59:46;;;;;;;12.98;6.25;;;;;;;22.65;65.68;101349.44;10460458;28;20048;-60
2021/08/15 09:04:48;;;;;;;8.15;5.60;;;;;;;23.36;62.29;101339.59;10459275;28;20052;-59
2021/08/15 09:09:56;;;;;;;8.63;4.75;;;;;;;22.78;61.08;101339.19;10461527;28;20052;-59
2021/08/15 09:15:11;;;;;;;7.57;4.97;;;;;;;22.83;61.17;101325.41;10460746;28;20052;-60
2021/08/15 09:20:20;;;;;;;12.55;5.20;;;;;;;23.05;59.51;101324.03;10459808;28;20073;-60
2021/08/15 09:25:24;;;;;;;7.68;4.82;;;;;;;23.46;60.33;101324.28;10460033;28;20056;-59
2021/08/15 09:30:29;;;;;;;6.13;4.28;;;;;;;23.40;60.71;101332.09;10458646;28;20136;-60
2021/08/15 09:35:38;;;;;;;7.90;5.00;;;;;;;23.84;57.07;101323.94;10459554;28;20052;-60
2021/08/15 09:40:46;;;;;;;6.30;3.95;;;;;;;25.06;55.00;101327.72;10457768;28;20514;-60
2021/08/15 09:45:56;;;;;;;7.60;4.75;;;;;;;25.28;55.14;101320.84;10459454;28;20057;-60
2021/08/15 09:51:13;;;;;;;12.50;5.33;;;;;;;26.26;50.73;101316.88;10457768;28;20064;-60
2021/08/15 09:56:16;;;;;;;9.35;4.93;;;;;;;27.24;51.17;101303.56;10458711;28;20290;-60
2021/08/15 10:01:19;;;;;;;7.63;4.78;;;;;;;27.65;49.77;101296.84;10457236;28;20053;-60
2021/08/15 10:06:21;;;;;;;6.38;4.10;;;;;;;27.46;50.35;101299.09;10457616;28;20401;-59
2021/08/15 10:11:23;;;;;;;8.65;4.65;;;;;;;26.05;52.74;101300.56;10457532;28;20056;-60
2021/08/15 10:16:31;;;;;;;5.07;3.60;;;;;;;25.16;54.51;101295.41;10455786;28;20045;-60
2021/08/15 10:21:40;;;;;;;9.85;4.53;;;;;;;26.00;54.70;101284.19;10456050;28;20056;-59
2021/08/15 10:26:50;;;;;;;5.78;3.55;;;;;;;27.06;49.38;101277.03;10456103;28;20447;-59
2021/08/15 10:32:16;;;;;;;5.93;3.53;;;;;;;26.40;51.42;101271.47;10457516;28;20052;-59
2021/08/15 10:37:33;;;;;;;5.40;3.22;;;;;;;27.08;53.22;101258.03;10457730;28;20063;-60
2021/08/15 10:42:47;;;;;;;8.55;4.43;;;;;;;27.86;47.26;101253.03;10457005;28;20045;-60
2021/08/15 10:48:12;;;;;;;4.03;2.95;;;;;;;28.60;48.46;101249.16;10456988;28;20420;-60
2021/08/15 10:53:26;;;;;;;4.68;2.60;;;;;;;27.25;46.96;101246.06;10456764;28;20041;-59
2021/08/15 10:58:41;;;;;;;2.95;2.33;;;;;;;29.92;41.76;101240.00;10457464;28;20053;-59
2021/08/15 11:03:53;;;;;;;6.55;2.15;;;;;;;29.36;41.72;101240.28;10456209;28;20405;-60
2021/08/15 11:08:56;;;;;;;8.27;2.45;;;;;;;30.36;38.85;101241.31;10456079;28;20075;-60
2021/08/15 11:14:17;;;;;;;2.80;2.20;;;;;;;30.63;39.88;101227.78;10456318;28;20068;-60
2021/08/15 11:19:20;;;;;;;5.30;2.28;;;;;;;29.01;44.83;101219.53;10456132;28;20056;-60
2021/08/15 11:24:23;;;;;;;2.67;1.85;;;;;;;28.17;45.70;101223.09;10456461;28;20049;-60
2021/08/15 11:29:25;;;;;;;4.00;2.20;;;;;;;28.60;44.45;101211.47;10455850;28;20049;-60
2021/08/15 11:34:28;;;;;;;2.15;1.88;;;;;;;29.12;44.03;101201.13;10456087;28;20041;-60
2021/08/15 11:39:36;;;;;;;4.32;2.20;;;;;;;28.69;43.89;101203.00;10455568;28;20045;-59
2021/08/15 11:44:58;;;;;;;3.03;1.90;;;;;;;29.52;44.87;101202.16;10455930;28;20048;-59
2021/08/15 11:50:18;;;;;;;4.05;2.53;;;;;;;29.55;43.64;101192.81;10454172;28;20477;-60
2021/08/15 11:55:28;;;;;;;2.23;1.80;;;;;;;30.39;38.63;101183.34;10461634;28;20051;-61
2021/08/15 12:00:33;;;;;;;3.45;1.67;;;;;;;28.82;42.10;101196.88;10462944;28;20557;-60
2021/08/15 12:05:41;;;;;;;2.53;2.08;;;;;;;30.85;41.10;101178.84;10461893;28;20067;-61
2021/08/15 12:10:54;;;;;;;5.72;2.22;;;;;;;29.48;39.16;101173.09;10462725;28;20045;-60
2021/08/15 12:15:59;;;;;;;3.50;1.85;;;;;;;30.33;37.67;101178.75;10463225;28;20049;-60
2021/08/15 12:21:15;;;;;;;2.60;2.20;;;;;;;29.87;40.59;101171.50;10462137;28;20119;-60
2021/08/15 12:26:38;;;;;;;4.18;2.20;;;;;;;30.07;39.39;101160.72;10462304;28;20048;-60
2021/08/15 12:31:40;;;;;;;2.72;2.10;;;;;;;31.80;38.37;101159.22;10462744;28;20049;-61
2021/08/15 12:36:53;;;;;;;4.22;1.88;;;;;;;32.56;34.95;101157.28;10461756;28;20049;-60
2021/08/15 12:41:59;;;;;;;3.10;1.48;;;;;;;32.04;37.50;101150.28;10460143;28;20409;-60
2021/08/15 12:47:07;;;;;;;5.82;1.52;;;;;;;32.31;36.24;101151.94;10461529;28;20049;-60
2021/08/15 12:52:21;;;;;;;3.38;1.83;;;;;;;32.66;36.25;101146.78;10461056;28;20131;-61
2021/08/15 12:57:24;;;;;;;4.30;2.05;;;;;;;32.63;39.32;101143.69;10461446;28;20045;-60
2021/08/15 13:02:27;;;;;;;2.63;1.80;;;;;;;30.87;39.40;101144.34;10460766;28;20409;-59
2021/08/15 13:07:30;;;;;;;3.17;2.08;;;;;;;30.64;38.98;101134.03;10458098;28;20049;-61
2021/08/15 13:12:33;;;;;;;8.18;3.65;;;;;;;29.28;43.37;101136.94;10460059;28;20040;-60
2021/08/15 13:17:36;;;;;;;2.45;2.10;;;;;;;29.55;44.78;101123.50;10460647;28;20052;-61
2021/08/15 13:22:38;;;;;;;3.25;1.85;;;;;;;29.99;44.61;101122.09;10459302;28;20048;-59
2021/08/15 13:27:41;;;;;;;3.92;2.50;;;;;;;29.72;40.94;101115.81;10460767;28;20045;-60
2021/08/15 13:32:44;;;;;;;2.90;2.08;;;;;;;29.48;43.63;101098.38;10459726;28;20048;-60
2021/08/15 13:37:46;;;;;;;4.82;2.63;;;;;;;29.55;44.37;101101.91;10459188;28;20041;-59
2021/08/15 13:42:49;;;;;;;6.03;2.00;;;;;;;29.61;43.44;101105.66;10459032;28;20504;-60
2021/08/15 13:47:52;;;;;;;2.15;1.70;;;;;;;29.33;43.30;101082.41;10459123;28;20045;-60
2021/08/15 13:52:56;;;;;;;3.13;2.00;;;;;;;28.90;44.20;101088.09;10459264;28;20045;-61
2021/08/15 13:57:59;;;;;;;2.33;1.95;;;;;;;29.05;44.98;101082.50;10457680;28;20055;-60
2021/08/15 14:03:02;;;;;;;3.30;1.70;;;;;;;27.85;46.79;101080.00;10458425;28;20044;-60
2021/08/15 14:08:05;;;;;;;2.20;1.90;;;;;;;28.49;46.46;101065.50;10458605;28;20045;-61
2021/08/15 14:13:24;;;;;;;4.63;2.08;;;;;;;28.31;47.94;101068.75;10458038;28;20048;-60
2021/08/15 14:18:27;;;;;;;2.17;1.77;;;;;;;28.18;48.56;101055.22;10457134;28;20412;-60
2021/08/15 14:23:30;;;;;;;2.30;1.65;;;;;;;27.97;51.16;101053.41;10458191;28;20084;-61
2021/08/15 14:28:32;;;;;;;4.95;1.80;;;;;;;27.57;50.77;101051.22;10457402;28;20056;-60
2021/08/15 14:33:35;;;;;;;2.47;1.75;;;;;;;29.25;46.92;101044.84;10458739;28;20057;-61
2021/08/15 14:38:38;;;;;;;4.32;1.80;;;;;;;27.63;51.68;101030.78;10456844;28;20447;-60
2021/08/15 14:43:41;;;;;;;1.80;1.70;;;;;;;27.61;51.23;101032.84;10456923;28;20405;-61
2021/08/15 14:48:43;;;;;;;2.85;1.80;;;;;;;28.05;52.38;101030.91;10456588;28;20053;-60
2021/08/15 14:53:45;;;;;;;4.82;1.67;;;;;;;28.62;50.04;101028.94;10456813;28;20048;-61
2021/08/15 14:58:48;;;;;;;2.28;1.58;;;;;;;28.47;48.83;101023.66;10456360;28;20060;-61
2021/08/15 15:03:50;;;;;;;2.65;2.08;;;;;;;27.56;51.38;101021.84;10456299;28;20051;-60
2021/08/15 15:08:52;;;;;;;3.10;2.35;;;;;;;27.88;51.18;101008.84;10456819;28;20049;-60
2021/08/15 15:13:55;;;;;;;3.42;1.75;;;;;;;28.35;49.67;101004.56;10456059;28;20099;-59
2021/08/15 15:18:57;;;;;;;5.35;2.33;;;;;;;27.24;49.57;101006.03;10456138;28;20052;-60
2021/08/15 15:24:00;;;;;;;4.72;2.58;;;;;;;27.35;48.76;100995.81;10456373;28;20106;-61
2021/08/15 15:29:03;;;;;;;4.32;2.88;;;;;;;26.84;51.44;100992.22;10460013;28;20477;-60
2021/08/15 15:34:05;;;;;;;4.75;3.13;;;;;;;26.66;52.90;100994.47;10464265;28;20420;-60
2021/08/15 15:39:07;;;;;;;6.60;2.33;;;;;;;26.71;52.29;100984.00;10463912;28;20049;-61
2021/08/15 15:44:10;;;;;;;4.15;2.20;;;;;;;27.28;52.09;100974.22;10464396;28;20053;-60
2021/08/15 15:49:12;;;;;;;3.47;2.85;;;;;;;27.18;52.33;100977.22;10463500;28;20480;-60
2021/08/15 15:54:14;;;;;;;3.80;3.08;;;;;;;26.86;53.77;100976.75;10464017;28;20049;-60
2021/08/15 15:59:17;;;;;;;7.95;3.58;;;;;;;26.30;55.14;100973.81;10463194;28;20053;-60
2021/08/15 16:04:19;;;;;;;5.57;3.60;;;;;;;26.51;53.89;100964.94;10462091;28;20056;-60
2021/08/15 16:09:21;;;;;;;5.40;3.25;;;;;;;26.39;52.75;100961.94;10461522;28;20056;-60
2021/08/15 16:14:24;;;;;;;3.28;2.67;;;;;;;26.23;55.68;100960.31;10462600;28;20060;-60
2021/08/15 16:19:26;;;;;;;3.35;2.58;;;;;;;26.02;57.05;100950.31;10462409;28;20059;-60
2021/08/15 16:24:29;;;;;;;3.38;2.42;;;;;;;26.26;57.81;100943.84;10462456;28;20041;-61
2021/08/15 16:29:31;;;;;;;4.63;2.40;;;;;;;26.98;55.89;100935.94;10461635;28;20049;-61
2021/08/15 16:34:34;;;;;;;5.70;2.63;;;;;;;26.97;53.59;100931.59;10462177;28;20051;-60
2021/08/15 16:39:36;;;;;;;5.80;2.83;;;;;;;26.26;55.10;100932.25;10461639;28;20045;-60
2021/08/15 16:44:38;;;;;;;7.32;3.03;;;;;;;26.28;54.31;100920.31;10461996;28;20052;-59
2021/08/15 16:49:41;;;;;;;3.50;2.65;;;;;;;26.18;58.93;100911.72;10443649;28;20393;-60
2021/08/15 16:54:43;;;;;;;8.07;3.20;;;;;;;26.34;57.48;100907.97;10462338;28;20041;-60
2021/08/15 16:59:46;;;;;;;7.50;3.53;;;;;;;25.85;60.62;100905.91;10460999;28;20056;-60
2021/08/15 17:04:48;;;;;;;4.88;3.20;;;;;;;26.09;60.19;100892.25;10443493;28;20401;-61
2021/08/15 17:09:50;;;;;;;7.93;3.92;;;;;;;25.63;62.42;100889.75;10460541;28;20087;-60
2021/08/15 17:14:53;;;;;;;4.97;2.90;;;;;;;25.78;61.59;100890.56;10460532;28;20064;-60
2021/08/15 17:19:56;;;;;;;5.07;3.20;;;;;;;25.54;60.64;100885.50;10460043;28;20127;-60
2021/08/15 17:24:58;;;;;;;4.90;3.20;;;;;;;25.80;59.76;100876.97;10460497;28;20063;-60
2021/08/15 17:30:00;;;;;;;5.88;3.25;;;;;;;25.47;61.85;100876.50;10460293;28;20048;-60
2021/08/15 17:35:04;;;;;;;5.55;3.50;;;;;;;25.53;61.74;100878.47;10459740;28;20045;-61
2021/08/15 17:40:07;;;;;;;5.63;3.13;;;;;;;25.32;63.45;100879.22;10459961;28;20056;-60
2021/08/15 17:45:10;;;;;;;7.43;3.38;;;;;;;25.14;62.27;100879.50;10459108;28;20500;-61
2021/08/15 17:50:14;;;;;;;9.40;4.13;;;;;;;24.69;63.14;100886.56;10458066;28;20052;-60
2021/08/15 17:55:16;;;;;;;7.45;3.47;;;;;;;24.69;63.24;100879.38;10458878;28;20049;-59
2021/08/15 18:00:18;;;;;;;7.63;3.78;;;;;;;24.32;62.63;100866.72;10458931;28;20064;-61
2021/08/15 18:05:21;;;;;;;4.95;3.72;;;;;;;24.23;62.18;100873.97;10458955;28;20052;-61
2021/08/15 18:10:23;;;;;;;7.80;3.92;;;;;;;23.93;64.33;100882.63;10457971;28;20045;-61
2021/08/15 18:15:26;;;;;;;11.27;5.47;;;;;;;23.73;66.94;100889.34;10457834;28;20405;-61
2021/08/15 18:20:28;;;;;;;8.07;5.03;;;;;;;23.40;67.60;100888.59;10458361;28;20045;-60
2021/08/15 18:25:31;;;;;;;8.00;4.60;;;;;;;23.13;68.47;100887.97;10457638;28;20059;-61
2021/08/15 18:30:33;;;;;;;7.85;4.15;;;;;;;22.99;68.94;100884.94;10458027;28;20049;-60
2021/08/15 18:35:37;;;;;;;6.53;3.70;;;;;;;22.72;69.36;100883.44;10456256;28;20045;-60
2021/08/15 18:40:40;;;;;;;6.50;3.85;;;;;;;22.59;69.31;100888.41;10457093;28;20079;-61
2021/08/15 18:45:42;;;;;;;9.00;4.22;;;;;;;22.35;70.00;100870.53;10456878;28;20413;-61
2021/08/15 18:50:44;;;;;;;9.07;4.70;;;;;;;22.58;69.21;100881.44;10455734;28;20401;-60
2021/08/15 18:55:47;;;;;;;8.98;4.38;;;;;;;22.17;70.33;100894.63;10457268;28;20045;-60
2021/08/15 19:00:49;;;;;;;11.27;4.50;;;;;;;22.30;70.07;100905.69;10456753;28;20052;-61
2021/08/15 19:05:52;;;;;;;9.68;4.70;;;;;;;22.34;68.95;100890.19;10456667;28;20049;-60
2021/08/15 19:10:54;;;;;;;8.32;4.68;;;;;;;22.08;69.08;100891.94;10456376;28;20049;-60
2021/08/15 19:15:57;;;;;;;11.48;4.55;;;;;;;22.03;68.35;100912.91;10456754;28;20053;-61
2021/08/15 19:20:59;;;;;;;8.02;3.78;;;;;;;21.91;67.55;100898.19;10456482;28;20053;-61
2021/08/15 19:26:21;;;;;;;8.85;3.80;;;;;;;21.63;68.99;100919.69;10455915;28;20451;-60
2021/08/15 19:31:24;;;;;;;9.60;3.50;;;;;;;21.59;67.63;100931.66;10456313;28;20053;-60
2021/08/15 19:36:26;;;;;;;5.22;3.20;;;;;;;21.76;67.72;100929.94;10455997;28;20397;-61
2021/08/15 19:41:28;;;;;;;5.78;3.17;;;;;;;21.49;68.34;100918.44;10456323;28;20416;-60
2021/08/15 19:46:31;;;;;;;5.72;3.72;;;;;;;21.25;69.26;100913.75;10455193;28;20053;-61
2021/08/15 19:51:34;;;;;;;4.43;3.58;;;;;;;21.03;68.73;100920.41;10455964;28;20049;-60
2021/08/15 19:56:37;;;;;;;5.70;3.47;;;;;;;21.07;68.20;100924.44;10455427;28;20512;-60
2021/08/15 20:01:50;;;;;;;8.93;4.05;;;;;;;20.85;67.39;100936.38;10455306;28;20560;-61
2021/08/15 20:06:53;;;;;;;4.47;2.85;;;;;;;20.88;67.10;100933.41;10455585;28;20048;-60
2021/08/15 20:11:59;;;;;;;8.60;3.67;;;;;;;20.76;67.45;100938.13;10455289;28;20068;-61
2021/08/15 20:17:01;;;;;;;4.60;3.17;;;;;;;20.77;68.45;100939.78;10462453;28;20059;-60
2021/08/15 20:22:05;;;;;;;11.07;3.58;;;;;;;20.82;68.51;100935.84;10462581;28;20091;-60
2021/08/15 20:27:07;;;;;;;4.68;3.20;;;;;;;20.39;70.58;100935.53;10461815;28;20045;-60
2021/08/15 20:32:09;;;;;;;6.50;2.45;;;;;;;20.54;70.58;100931.41;10462173;28;20049;-60
2021/08/15 20:37:12;;;;;;;3.92;2.17;;;;;;;20.55;72.48;100926.91;10461919;28;20049;-60
2021/08/15 20:42:14;;;;;;;6.68;3.45;;;;;;;20.56;72.48;100952.50;10461870;28;20049;-59
2021/08/15 20:47:16;;;;;;;5.15;2.28;;;;;;;20.07;74.81;100943.94;10461221;28;20067;-60
2021/08/15 20:52:19;;;;;;;6.18;1.60;;;;;;;19.75;74.91;100945.16;10461566;28;20050;-60
2021/08/15 20:57:21;;;;;;;2.17;1.40;;;;;;;19.68;75.51;100947.53;10461057;28;20048;-59
2021/08/15 21:02:24;;;;;;;3.35;1.48;;;;;;;19.70;76.04;100940.25;10460499;28;20045;-60
2021/08/15 21:07:26;;;;;;;4.32;1.30;;;;;;;19.51;76.77;100919.06;10460652;28;20049;-59
2021/08/15 21:12:28;;;;;;;6.50;1.75;;;;;;;19.33;77.20;100929.56;10460608;28;20049;-60
2021/08/15 21:17:31;;;;;;;4.68;1.30;;;;;;;19.03;78.07;100936.72;10460190;28;20049;-59
2021/08/15 21:22:33;;;;;;;2.00;1.00;;;;;;;18.96;78.20;100933.78;10460190;28;20045;-58
2021/08/15 21:27:37;;;;;;;2.60;1.33;;;;;;;19.13;78.23;100924.28;10458886;28;20052;-60
2021/08/15 21:32:41;;;;;;;1.90;1.23;;;;;;;19.12;78.88;100925.28;10459881;28;20059;-59
2021/08/15 21:37:43;;;;;;;2.33;1.25;;;;;;;19.13;78.66;100926.94;10459479;28;20045;-59
2021/08/15 21:42:48;;;;;;;6.40;1.90;;;;;;;18.45;80.79;100913.59;10459822;28;20049;-60
2021/08/15 21:47:50;;;;;;;5.93;1.42;;;;;;;18.82;79.90;100919.09;10459021;28;20424;-60
2021/08/15 21:52:53;;;;;;;3.30;1.42;;;;;;;18.87;79.29;100914.25;10459156;28;20550;-59
2021/08/15 21:57:55;;;;;;;4.25;1.70;;;;;;;18.84;79.43;100914.50;10458481;28;20516;-60
2021/08/15 22:02:58;;;;;;;2.60;1.52;;;;;;;18.33;81.52;100911.06;10458699;28;20053;-60
2021/08/15 22:08:00;;;;;;;3.75;1.80;;;;;;;18.60;80.83;100909.59;10458369;28;20044;-60
2021/08/15 22:13:03;;;;;;;7.75;1.88;;;;;;;18.51;81.61;100915.72;10458465;28;20052;-60
2021/08/15 22:18:06;;;;;;;2.97;1.85;;;;;;;18.44;82.02;100919.88;10457903;28;20397;-59
2021/08/15 22:23:09;;;;;;;5.60;2.55;;;;;;;18.06;82.97;100909.03;10457806;28;20401;-60
2021/08/15 22:28:11;;;;;;;6.82;2.05;;;;;;;18.42;82.37;100903.28;10457799;28;20370;-59
2021/08/15 22:33:13;;;;;;;4.22;1.83;;;;;;;18.31;82.18;100897.13;10456190;28;20492;-60
2021/08/15 22:38:16;;;;;;;5.95;2.28;;;;;;;18.06;83.36;100893.13;10456696;28;20041;-60
2021/08/15 22:43:18;;;;;;;4.07;2.00;;;;;;;18.07;82.34;100900.13;10457431;28;20048;-59
2021/08/15 22:48:21;;;;;;;4.82;1.88;;;;;;;18.08;82.55;100890.34;10457005;28;20055;-59
2021/08/15 22:53:23;;;;;;;4.55;2.20;;;;;;;17.86;82.87;100901.97;10455597;28;20489;-59
2021/08/15 22:58:26;;;;;;;3.20;1.63;;;;;;;17.96;81.56;100893.09;10456832;28;20045;-59
2021/08/15 23:03:28;;;;;;;4.43;2.10;;;;;;;17.74;82.47;100891.44;10455753;28;20049;-59
2021/08/15 23:08:30;;;;;;;8.82;2.60;;;;;;;17.42;82.10;100902.16;10456362;28;20430;-59